createdAt,value
2023-08-17T00:01:09.536Z,102258.56
2023-08-17T00:03:36.105Z,102261.50
2023-08-17T00:06:02.605Z,102254.34
2023-08-17T00:08:29.135Z,102258.91
2023-08-17T00:10:55.618Z,102254.34
2023-08-17T00:13:22.126Z,102258.00
2023-08-17T00:15:50.032Z,102250.03
2023-08-17T00:18:16.647Z,102258.56
2023-08-17T00:20:43.048Z,102252.06
2023-08-17T00:23:09.645Z,102246.84
2023-08-17T00:25:36.647Z,102249.34
2023-08-17T00:28:03.399Z,102253.91
2023-08-17T00:30:29.866Z,102247.88
2023-08-17T00:32:56.288Z,102251.16
2023-08-17T00:35:22.900Z,102248.78
2023-08-17T00:37:49.760Z,102251.72
2023-08-17T00:40:16.207Z,102252.06
2023-08-17T00:42:42.822Z,102251.72
2023-08-17T00:45:09.899Z,102246.94
2023-08-17T00:47:36.849Z,102240.91
2023-08-17T00:50:03.739Z,102244.22
2023-08-17T00:52:33.227Z,102239.00
2023-08-17T00:55:01.657Z,102245.19
2023-08-17T00:57:29.521Z,102248.03
2023-08-17T01:00:04.703Z,102242.03
2023-08-17T01:02:32.822Z,102242.81
2023-08-17T01:04:59.679Z,102244.41
2023-08-17T01:07:26.443Z,102246.19
2023-08-17T01:09:53.417Z,102238.22
2023-08-17T01:12:33.069Z,102232.66
2023-08-17T01:14:59.463Z,102247.19
2023-08-17T01:17:31.403Z,102255.28
2023-08-17T01:19:59.944Z,102250.84
2023-08-17T01:22:28.485Z,102243.13
2023-08-17T01:25:00.566Z,102245.97
2023-08-17T01:27:30.712Z,102238.22
2023-08-17T01:29:57.472Z,102232.56
2023-08-17T01:32:28.579Z,102228.94
2023-08-17T01:35:05.454Z,102232.66
2023-08-17T01:37:36.729Z,102234.38
2023-08-17T01:40:06.172Z,102220.63
2023-08-17T01:42:33.013Z,102227.88
2023-08-17T01:44:59.725Z,102232.09
2023-08-17T01:47:26.889Z,102232.19
2023-08-17T01:49:54.031Z,102240.25
2023-08-17T01:52:20.694Z,102231.47
2023-08-17T01:54:47.253Z,102222.97
2023-08-17T01:57:13.751Z,102229.88
2023-08-17T01:59:40.300Z,102224.31
2023-08-17T02:02:07.112Z,102222.28
2023-08-17T02:04:33.580Z,102216.59
2023-08-17T02:07:00.163Z,102222.84
2023-08-17T02:09:26.798Z,102225.31
2023-08-17T02:11:53.273Z,102227.44
2023-08-17T02:14:19.834Z,102218.94
2023-08-17T02:16:46.317Z,102218.56
2023-08-17T02:19:12.787Z,102230.44
2023-08-17T02:21:39.288Z,102232.09
2023-08-17T02:24:06.185Z,102234.53
2023-08-17T02:26:34.414Z,102230.13
2023-08-17T02:29:00.946Z,102233.50
2023-08-17T02:31:27.401Z,102224.72
2023-08-17T02:33:54.260Z,102227.56
2023-08-17T02:36:20.756Z,102223.47
2023-08-17T02:38:47.534Z,102222.69
2023-08-17T02:41:13.999Z,102219.50
2023-08-17T02:43:40.688Z,102211.00
2023-08-17T02:46:08.498Z,102221.53
2023-08-17T02:48:35.211Z,102204.97
2023-08-17T02:51:01.803Z,102211.44
2023-08-17T02:53:28.433Z,102209.06
2023-08-17T02:55:54.960Z,102205.84
2023-08-17T02:58:21.528Z,102196.53
2023-08-17T03:00:48.003Z,102202.66
2023-08-17T03:03:17.070Z,102206.75
2023-08-17T03:05:43.585Z,102206.75
2023-08-17T03:08:10.228Z,102205.06
2023-08-17T03:10:38.533Z,102208.34
2023-08-17T03:13:05.156Z,102206.03
2023-08-17T03:15:31.789Z,102201.94
2023-08-17T03:17:58.335Z,102212.44
2023-08-17T03:20:24.936Z,102207.53
2023-08-17T03:22:51.393Z,102209.91
2023-08-17T03:25:19.906Z,102213.13
2023-08-17T03:27:46.755Z,102201.41
2023-08-17T03:30:13.203Z,102204.34
2023-08-17T03:32:39.632Z,102203.56
2023-08-17T03:35:06.725Z,102198.78
2023-08-17T03:37:33.092Z,102195.97
2023-08-17T03:40:01.515Z,102190.81
2023-08-17T03:42:28.196Z,102197.38
2023-08-17T03:44:55.855Z,102201.47
2023-08-17T03:47:22.402Z,102192.59
2023-08-17T03:49:48.854Z,102200.75
2023-08-17T03:52:15.290Z,102199.16
2023-08-17T03:54:41.724Z,102187.47
2023-08-17T03:57:08.246Z,102196.78
2023-08-17T03:59:34.723Z,102196.88
2023-08-17T04:02:01.364Z,102197.22
2023-08-17T04:04:28.592Z,102187.56
2023-08-17T04:06:55.201Z,102196.88
2023-08-17T04:09:21.788Z,102195.25
2023-08-17T04:11:48.236Z,102196.06
2023-08-17T04:14:15.256Z,102199.69
2023-08-17T04:16:41.671Z,102205.81
2023-08-17T04:19:08.764Z,102194.56
2023-08-17T04:21:35.206Z,102200.16
2023-08-17T04:24:01.635Z,102197.31
2023-08-17T04:26:28.122Z,102194.91
2023-08-17T04:28:54.725Z,102197.41
2023-08-17T04:31:21.190Z,102194.56
2023-08-17T04:33:47.740Z,102195.38
2023-08-17T04:36:14.436Z,102194.22
2023-08-17T04:38:40.955Z,102192.97
2023-08-17T04:41:07.665Z,102195.47
2023-08-17T04:43:34.114Z,102190.94
2023-08-17T04:46:00.586Z,102192.09
2023-08-17T04:48:27.332Z,102188.00
2023-08-17T04:50:53.880Z,102179.50
2023-08-17T04:53:20.310Z,102183.13
2023-08-17T04:55:46.790Z,102179.03
2023-08-17T04:58:13.343Z,102177.38
2023-08-17T05:00:39.820Z,102191.19
2023-08-17T05:03:09.629Z,102192.41
2023-08-17T05:05:38.399Z,102187.56
2023-08-17T05:08:05.283Z,102187.09
2023-08-17T05:10:31.740Z,102177.03
2023-08-17T05:12:58.325Z,102191.56
2023-08-17T05:15:25.037Z,102183.50
2023-08-17T05:17:51.677Z,102175.84
2023-08-17T05:20:18.169Z,102179.13
2023-08-17T05:22:44.681Z,102180.41
2023-08-17T05:25:11.189Z,102182.41
2023-08-17T05:27:37.804Z,102181.53
2023-08-17T05:30:04.837Z,102180.75
2023-08-17T05:32:31.400Z,102185.53
2023-08-17T05:34:58.441Z,102174.19
2023-08-17T05:37:25.017Z,102188.19
2023-08-17T05:39:51.739Z,102178.06
2023-08-17T05:42:18.236Z,102179.56
2023-08-17T05:44:45.535Z,102178.69
2023-08-17T05:47:12.141Z,102178.59
2023-08-17T05:49:39.195Z,102186.56
2023-08-17T05:52:06.044Z,102178.03
2023-08-17T05:54:32.520Z,102181.78
2023-08-17T05:56:59.100Z,102184.94
2023-08-17T05:59:25.684Z,102187.22
2023-08-17T06:01:52.230Z,102188.31
2023-08-17T06:04:18.725Z,102198.38
2023-08-17T06:06:45.273Z,102204.41
2023-08-17T06:09:11.946Z,102212.03
2023-08-17T06:11:38.721Z,102211.66
2023-08-17T06:14:05.577Z,102209.63
2023-08-17T06:16:32.078Z,102210.44
2023-08-17T06:18:58.581Z,102221.44
2023-08-17T06:21:25.136Z,102221.09
2023-08-17T06:23:51.651Z,102221.44
2023-08-17T06:26:18.097Z,102221.25
2023-08-17T06:28:44.812Z,102217.44
2023-08-17T06:31:11.314Z,102216.44
2023-08-17T06:33:37.778Z,102224.06
2023-08-17T06:36:04.494Z,102222.38
2023-08-17T06:38:31.106Z,102224.75
2023-08-17T06:40:57.529Z,102224.22
2023-08-17T06:43:23.920Z,102226.50
2023-08-17T06:45:50.504Z,102224.03
2023-08-17T06:48:17.021Z,102225.25
2023-08-17T06:50:43.657Z,102228.09
2023-08-17T06:53:10.396Z,102218.34
2023-08-17T06:55:36.893Z,102226.31
2023-08-17T06:58:03.545Z,102219.38
2023-08-17T07:00:30.406Z,102222.56
2023-08-17T07:02:59.579Z,102228.13
2023-08-17T07:05:27.700Z,102229.25
2023-08-17T07:07:54.270Z,102219.63
2023-08-17T07:10:20.986Z,102225.19
2023-08-17T07:12:47.487Z,102222.72
2023-08-17T07:15:14.006Z,102228.28
2023-08-17T07:17:40.694Z,102234.06
2023-08-17T07:20:16.367Z,102233.16
2023-08-17T07:22:43.917Z,102222.16
2023-08-17T07:25:10.588Z,102223.97
2023-08-17T07:27:37.441Z,102223.88
2023-08-17T07:30:04.293Z,102232.19
2023-08-17T07:32:30.749Z,102234.69
2023-08-17T07:34:57.208Z,102220.72
2023-08-17T07:37:23.810Z,102228.13
2023-08-17T07:39:50.473Z,102227.00
2023-08-17T07:42:16.941Z,102223.94
2023-08-17T07:44:43.487Z,102221.78
2023-08-17T07:47:10.078Z,102227.66
2023-08-17T07:49:36.569Z,102230.78
2023-08-17T07:52:03.129Z,102229.31
2023-08-17T07:54:29.623Z,102226.78
2023-08-17T07:56:56.144Z,102229.03
2023-08-17T07:59:22.596Z,102225.38
2023-08-17T08:01:49.246Z,102229.03
2023-08-17T08:04:15.855Z,102230.38
2023-08-17T08:06:42.935Z,102233.66
2023-08-17T08:09:09.565Z,102240.94
2023-08-17T08:11:36.080Z,102235.69
2023-08-17T08:14:02.541Z,102226.63
2023-08-17T08:16:31.681Z,102226.66
2023-08-17T08:18:59.134Z,102235.41
2023-08-17T08:21:25.794Z,102231.56
2023-08-17T08:23:52.267Z,102230.91
2023-08-17T08:26:18.761Z,102234.03
2023-08-17T08:28:46.497Z,102227.06
2023-08-17T08:31:13.046Z,102221.31
2023-08-17T08:33:39.620Z,102219.44
2023-08-17T08:36:07.316Z,102231.63
2023-08-17T08:38:34.092Z,102227.94
2023-08-17T08:41:01.684Z,102229.47
2023-08-17T08:43:28.180Z,102234.16
2023-08-17T08:45:56.102Z,102228.59
2023-08-17T08:48:24.230Z,102229.06
2023-08-17T08:50:51.309Z,102229.19
2023-08-17T08:53:22.394Z,102222.25
2023-08-17T08:55:59.575Z,102222.41
2023-08-17T08:58:26.693Z,102227.06
2023-08-17T09:00:53.497Z,102222.97
2023-08-17T09:03:21.659Z,102220.97
2023-08-17T09:05:50.244Z,102213.97
2023-08-17T09:08:24.253Z,102213.16
2023-08-17T09:10:50.737Z,102212.22
2023-08-17T09:13:17.385Z,102212.19
2023-08-17T09:15:44.007Z,102203.69
2023-08-17T09:18:13.737Z,102206.94
2023-08-17T09:20:47.247Z,102198.16
2023-08-17T09:23:16.858Z,102197.44
2023-08-17T09:25:45.416Z,102196.53
2023-08-17T09:28:15.641Z,102194.97
2023-08-17T09:30:54.697Z,102194.50
2023-08-17T09:33:25.013Z,102192.75
2023-08-17T09:35:58.527Z,102192.00
2023-08-17T09:38:26.024Z,102188.66
2023-08-17T09:40:53.133Z,102191.84
2023-08-17T09:43:22.208Z,102190.38
2023-08-17T09:45:52.818Z,102187.19
2023-08-17T09:48:20.426Z,102181.97
2023-08-17T09:50:48.193Z,102176.88
2023-08-17T09:53:16.644Z,102179.09
2023-08-17T09:55:44.402Z,102184.00
2023-08-17T09:58:16.029Z,102179.56
2023-08-17T10:00:51.855Z,102177.50
2023-08-17T10:03:20.738Z,102177.94
2023-08-17T10:05:56.034Z,102177.59
2023-08-17T10:08:24.169Z,102175.22
2023-08-17T10:10:56.584Z,102178.06
2023-08-17T10:13:36.009Z,102167.81
2023-08-17T10:16:30.056Z,102167.38
2023-08-17T10:19:11.466Z,102164.28
2023-08-17T10:21:44.698Z,102165.22
2023-08-17T10:24:12.883Z,102163.97
2023-08-17T10:26:39.832Z,102164.63
2023-08-17T10:29:15.330Z,102160.06
2023-08-17T10:31:46.450Z,102166.91
2023-08-17T10:34:14.575Z,102156.31
2023-08-17T10:36:42.177Z,102162.16
2023-08-17T10:39:29.137Z,102157.13
2023-08-17T10:41:58.072Z,102164.41
2023-08-17T10:44:42.695Z,102162.81
2023-08-17T10:47:24.670Z,102166.00
2023-08-17T10:50:05.094Z,102169.00
2023-08-17T10:52:33.989Z,102164.38
2023-08-17T10:55:02.388Z,102168.47
2023-08-17T10:57:34.508Z,102173.13
2023-08-17T11:02:56.463Z,102167.09
2023-08-17T11:05:38.860Z,102159.31
2023-08-17T11:08:14.859Z,102158.06
2023-08-17T11:10:41.533Z,102157.44
2023-08-17T11:13:08.443Z,102142.44
2023-08-17T11:15:39.574Z,102147.84
2023-08-17T11:18:10.491Z,102155.00
2023-08-17T11:20:39.609Z,102154.03
2023-08-17T11:23:07.570Z,102151.66
2023-08-17T11:25:35.389Z,102151.63
2023-08-17T11:28:02.862Z,102154.47
2023-08-17T11:30:30.059Z,102148.00
2023-08-17T11:32:57.877Z,102155.13
2023-08-17T11:35:24.614Z,102165.88
2023-08-17T11:37:51.253Z,102157.94
2023-08-17T11:40:18.224Z,102162.22
2023-08-17T11:42:46.724Z,102154.94
2023-08-17T11:45:13.837Z,102154.13
2023-08-17T11:47:41.860Z,102158.09
2023-08-17T11:50:20.452Z,102150.53
2023-08-17T11:52:48.157Z,102148.63
2023-08-17T11:55:18.856Z,102144.25
2023-08-17T11:57:45.931Z,102138.22
2023-08-17T12:00:17.686Z,102139.53
2023-08-17T12:02:46.398Z,102146.16
2023-08-17T12:05:12.935Z,102145.19
2023-08-17T12:07:39.650Z,102146.94
2023-08-17T12:10:06.964Z,102147.09
2023-08-17T12:12:38.007Z,102148.34
2023-08-17T12:15:05.377Z,102139.59
2023-08-17T12:17:32.012Z,102138.97
2023-08-17T12:20:00.349Z,102139.44
2023-08-17T12:22:27.545Z,102144.81
2023-08-17T12:24:54.525Z,102149.22
2023-08-17T12:27:24.881Z,102142.59
2023-08-17T12:29:52.439Z,102131.19
2023-08-17T12:32:20.927Z,102140.69
2023-08-17T12:34:49.635Z,102134.06
2023-08-17T12:37:21.894Z,102131.53
2023-08-17T12:39:49.531Z,102139.78
2023-08-17T12:42:16.546Z,102140.69
2023-08-17T12:44:42.949Z,102140.41
2023-08-17T12:47:10.505Z,102148.75
2023-08-17T12:49:39.443Z,102143.69
2023-08-17T12:52:06.420Z,102151.75
2023-08-17T12:54:32.882Z,102148.91
2023-08-17T12:57:00.612Z,102154.28
2023-08-17T12:59:28.385Z,102153.94
2023-08-17T13:01:54.813Z,102156.03
2023-08-17T13:04:21.238Z,102157.25
2023-08-17T13:06:50.009Z,102152.84
2023-08-17T13:09:17.036Z,102150.31
2023-08-17T13:11:43.505Z,102148.91
2023-08-17T13:14:10.027Z,102154.28
2023-08-17T13:16:36.613Z,102145.88
2023-08-17T13:19:03.649Z,102143.81
2023-08-17T13:21:30.008Z,102150.00
2023-08-17T13:23:56.487Z,102140.63
2023-08-17T13:26:26.187Z,102143.81
2023-08-17T13:28:52.729Z,102143.50
2023-08-17T13:31:24.872Z,102148.38
2023-08-17T13:33:52.197Z,102154.41
2023-08-17T13:36:19.315Z,102153.47
2023-08-17T13:38:46.875Z,102149.84
2023-08-17T13:41:13.934Z,102140.50
2023-08-17T13:43:41.347Z,102144.63
2023-08-17T13:46:08.204Z,102137.97
2023-08-17T13:48:34.995Z,102137.84
2023-08-17T13:51:01.440Z,102126.56
2023-08-17T13:53:27.851Z,102125.78
2023-08-17T13:55:54.963Z,102129.75
2023-08-17T13:58:21.565Z,102126.09
2023-08-17T14:00:48.021Z,102116.59
2023-08-17T14:03:14.544Z,102117.91
2023-08-17T14:05:41.611Z,102116.03
2023-08-17T14:08:08.758Z,102123.63
2023-08-17T14:10:40.170Z,102117.59
2023-08-17T14:13:07.264Z,102111.09
2023-08-17T14:15:33.781Z,102107.63
2023-08-17T14:18:00.385Z,102112.41
2023-08-17T14:20:27.964Z,102107.81
2023-08-17T14:22:54.557Z,102111.78
2023-08-17T14:25:21.025Z,102112.88
2023-08-17T14:27:47.490Z,102106.84
2023-08-17T14:30:14.293Z,102112.25
2023-08-17T14:32:40.718Z,102110.31
2023-08-17T14:35:12.315Z,102101.47
2023-08-17T14:37:39.592Z,102106.84
2023-08-17T14:40:06.703Z,102096.69
2023-08-17T14:42:33.266Z,102097.81
2023-08-17T14:44:59.721Z,102097.34
2023-08-17T14:47:26.804Z,102095.00
2023-08-17T14:49:54.516Z,102095.47
2023-08-17T14:52:21.020Z,102095.16
2023-08-17T14:54:47.457Z,102099.28
2023-08-17T14:57:14.015Z,102091.19
2023-08-17T14:59:40.395Z,102094.66
2023-08-17T15:02:06.891Z,102098.16
2023-08-17T15:04:34.164Z,102088.16
2023-08-17T15:07:00.609Z,102091.81
2023-08-17T15:09:27.127Z,102082.47
2023-08-17T15:11:53.555Z,102082.13
2023-08-17T15:14:19.975Z,102075.50
2023-08-17T15:16:46.377Z,102073.91
2023-08-17T15:19:14.181Z,102075.81
2023-08-17T15:21:42.059Z,102058.72
2023-08-17T15:24:09.879Z,102057.75
2023-08-17T15:26:36.480Z,102053.63
2023-08-17T15:29:03.274Z,102056.31
2023-08-17T15:31:29.804Z,102051.44
2023-08-17T15:33:56.322Z,102056.50
2023-08-17T15:36:24.876Z,102053.63
2023-08-17T15:38:52.055Z,102043.69
2023-08-17T15:41:19.660Z,102055.56
2023-08-17T15:43:46.078Z,102053.63
2023-08-17T15:46:12.683Z,102055.88
2023-08-17T15:48:39.349Z,102054.91
2023-08-17T15:51:05.815Z,102053.81
2023-08-17T15:53:32.292Z,102059.00
2023-08-17T15:55:58.744Z,102051.56
2023-08-17T15:58:25.242Z,102059.97
2023-08-17T16:00:51.762Z,102053.94
2023-08-17T16:03:18.277Z,102049.63
2023-08-17T16:05:44.745Z,102055.94
2023-08-17T16:08:11.694Z,102059.59
2023-08-17T16:10:38.175Z,102047.88
2023-08-17T16:13:04.781Z,102047.53
2023-08-17T16:15:31.220Z,102038.84
2023-08-17T16:18:01.213Z,102041.38
2023-08-17T16:20:30.643Z,102044.69
2023-08-17T16:22:57.216Z,102045.16
2023-08-17T16:25:23.678Z,102037.97
2023-08-17T16:27:50.196Z,102040.19
2023-08-17T16:30:16.651Z,102040.34
2023-08-17T16:32:43.275Z,102041.16
2023-08-17T16:35:10.970Z,102029.44
2023-08-17T16:37:40.730Z,102026.25
2023-08-17T16:40:15.099Z,102031.16
2023-08-17T16:42:47.836Z,102031.63
2023-08-17T16:45:16.141Z,102031.00
2023-08-17T16:47:43.115Z,102036.81
2023-08-17T16:50:09.790Z,102027.47
2023-08-17T16:52:39.797Z,102027.97
2023-08-17T16:55:07.007Z,102030.00
2023-08-17T16:57:34.217Z,102032.03
2023-08-17T17:00:04.451Z,102025.72
2023-08-17T17:02:33.146Z,102025.53
2023-08-17T17:04:59.637Z,102026.00
2023-08-17T17:07:26.443Z,102026.00
2023-08-17T17:09:52.913Z,102024.44
2023-08-17T17:12:19.446Z,102029.31
2023-08-17T17:14:45.946Z,102036.25
2023-08-17T17:17:12.464Z,102031.84
2023-08-17T17:19:38.904Z,102030.56
2023-08-17T17:22:05.529Z,102026.94
2023-08-17T17:24:32.595Z,102029.00
2023-08-17T17:26:59.144Z,102021.38
2023-08-17T17:29:25.604Z,102011.25
2023-08-17T17:31:52.928Z,102019.00
2023-08-17T17:34:19.568Z,102017.56
2023-08-17T17:36:48.464Z,102005.88
2023-08-17T17:39:14.895Z,102010.41
2023-08-17T17:41:41.518Z,102005.66
2023-08-17T17:44:07.967Z,102006.63
2023-08-17T17:46:34.802Z,102002.16
2023-08-17T17:49:01.342Z,102005.81
2023-08-17T17:51:27.794Z,102008.66
2023-08-17T17:53:55.312Z,102009.94
2023-08-17T17:56:45.795Z,102012.78
2023-08-17T17:59:12.587Z,102010.84
2023-08-17T18:01:39.722Z,102020.66
2023-08-17T18:04:06.873Z,102006.41
2023-08-17T18:06:35.262Z,102004.84
2023-08-17T18:09:02.131Z,102017.13
2023-08-17T18:11:28.677Z,102007.16
2023-08-17T18:13:55.164Z,102012.38
2023-08-17T18:16:21.678Z,102013.66
2023-08-17T18:18:48.453Z,102020.13
2023-08-17T18:21:14.888Z,102021.06
2023-08-17T18:23:41.274Z,102024.38
2023-08-17T18:26:07.884Z,102018.69
2023-08-17T18:28:34.295Z,102026.75
2023-08-17T18:31:00.950Z,102027.56
2023-08-17T18:33:27.504Z,102031.34
2023-08-17T18:35:55.208Z,102031.81
2023-08-17T18:38:23.343Z,102035.09
2023-08-17T18:40:52.379Z,102033.50
2023-08-17T18:43:20.558Z,102041.59
2023-08-17T18:45:47.130Z,102041.72
2023-08-17T18:48:13.992Z,102039.69
2023-08-17T18:50:40.709Z,102049.00
2023-08-17T18:53:08.212Z,102044.19
2023-08-17T18:55:35.083Z,102042.16
2023-08-17T18:58:01.838Z,102050.25
2023-08-17T19:00:28.633Z,102045.84
2023-08-17T19:02:55.264Z,102049.88
2023-08-17T19:05:21.962Z,102051.53
2023-08-17T19:07:48.668Z,102053.09
2023-08-17T19:10:16.183Z,102051.97
2023-08-17T19:12:43.147Z,102054.00
2023-08-17T19:15:10.185Z,102054.47
2023-08-17T19:17:37.019Z,102053.66
2023-08-17T19:20:04.019Z,102059.81
2023-08-17T19:22:30.459Z,102057.44
2023-08-17T19:24:57.130Z,102055.88
2023-08-17T19:27:23.697Z,102060.44
2023-08-17T19:29:50.418Z,102053.50
2023-08-17T19:32:18.557Z,102064.88
2023-08-17T19:34:45.021Z,102065.66
2023-08-17T19:37:11.599Z,102052.69
2023-08-17T19:39:38.114Z,102062.81
2023-08-17T19:42:04.993Z,102052.69
2023-08-17T19:44:31.615Z,102055.19
2023-08-17T19:46:58.364Z,102049.16
2023-08-17T19:49:27.743Z,102053.63
2023-08-17T19:51:55.310Z,102056.13
2023-08-17T19:54:21.795Z,102053.28
2023-08-17T19:56:48.341Z,102057.38
2023-08-17T19:59:15.083Z,102055.00
2023-08-17T20:01:41.760Z,102052.94
2023-08-17T20:04:11.837Z,102056.59
2023-08-17T20:06:38.509Z,102046.00
2023-08-17T20:09:05.552Z,102055.34
2023-08-17T20:11:32.000Z,102054.53
2023-08-17T20:13:58.556Z,102059.09
2023-08-17T20:16:25.079Z,102063.66
2023-08-17T20:18:53.178Z,102059.22
2023-08-17T20:21:19.887Z,102069.03
2023-08-17T20:23:46.802Z,102071.88
2023-08-17T20:26:13.473Z,102080.41
2023-08-17T20:28:40.248Z,102078.34
2023-08-17T20:31:07.196Z,102071.88
2023-08-17T20:33:34.212Z,102071.88
2023-08-17T20:36:00.739Z,102080.41
2023-08-17T20:38:27.426Z,102080.06
2023-08-17T20:40:54.466Z,102076.44
2023-08-17T20:43:20.947Z,102076.91
2023-08-17T20:45:47.574Z,102082.59
2023-08-17T20:48:14.457Z,102081.78
2023-08-17T20:50:41.629Z,102081.00
2023-08-17T20:53:09.946Z,102077.03
2023-08-17T20:55:39.560Z,102083.97
2023-08-17T20:58:06.828Z,102092.50
2023-08-17T21:00:36.639Z,102086.81
2023-08-17T21:03:04.974Z,102090.13
2023-08-17T21:05:32.637Z,102085.22
2023-08-17T21:07:59.973Z,102087.28
2023-08-17T21:10:27.007Z,102091.84
2023-08-17T21:12:53.477Z,102089.13
2023-08-17T21:15:19.964Z,102082.16
2023-08-17T21:17:47.054Z,102081.84
2023-08-17T21:20:14.333Z,102083.44
2023-08-17T21:22:50.313Z,102075.38
2023-08-17T21:25:18.137Z,102067.16
2023-08-17T21:27:44.744Z,102070.78
2023-08-17T21:30:11.427Z,102070.00
2023-08-17T21:32:37.973Z,102069.22
2023-08-17T21:35:04.873Z,102074.91
2023-08-17T21:37:31.802Z,102066.38
2023-08-17T21:39:58.578Z,102066.03
2023-08-17T21:42:25.078Z,102068.53
2023-08-17T21:44:52.642Z,102071.38
2023-08-17T21:47:19.260Z,102063.78
2023-08-17T21:49:48.063Z,102066.97
2023-08-17T21:52:16.204Z,102071.84
2023-08-17T21:54:42.954Z,102066.28
2023-08-17T21:57:10.554Z,102066.28
2023-08-17T21:59:36.995Z,102055.81
2023-08-17T22:02:04.082Z,102062.44
2023-08-17T22:04:33.640Z,102060.19
2023-08-17T22:07:02.408Z,102065.19
2023-08-17T22:09:29.845Z,102056.34
2023-08-17T22:11:56.840Z,102057.59
2023-08-17T22:14:23.184Z,102061.25
2023-08-17T22:16:49.607Z,102059.63
2023-08-17T22:19:16.200Z,102056.00
2023-08-17T22:21:43.221Z,102059.78
2023-08-17T22:24:09.727Z,102055.78
2023-08-17T22:26:36.495Z,102061.00
2023-08-17T22:29:04.426Z,102056.59
2023-08-17T22:31:32.180Z,102060.69
2023-08-17T22:33:58.653Z,102061.13
2023-08-17T22:36:25.377Z,102055.91
2023-08-17T22:38:51.802Z,102062.88
2023-08-17T22:41:18.222Z,102063.31
2023-08-17T22:43:44.693Z,102046.41
2023-08-17T22:46:11.421Z,102046.41
2023-08-17T22:48:37.984Z,102046.41
2023-08-17T22:51:04.471Z,102039.22
2023-08-17T22:53:31.178Z,102049.47
2023-08-17T22:55:57.803Z,102042.41
2023-08-17T22:58:24.311Z,102040.03
2023-08-17T23:00:50.775Z,102029.94
2023-08-17T23:03:17.419Z,102030.41
2023-08-17T23:05:45.263Z,102042.16
2023-08-17T23:08:11.678Z,102033.31
2023-08-17T23:10:38.088Z,102035.34
2023-08-17T23:13:04.763Z,102030.47
2023-08-17T23:15:31.190Z,102026.84
2023-08-17T23:17:57.949Z,102028.88
2023-08-17T23:20:24.411Z,102032.53
2023-08-17T23:22:50.875Z,102026.03
2023-08-17T23:25:17.412Z,102031.38
2023-08-17T23:27:43.991Z,102018.44
2023-08-17T23:30:12.286Z,102028.22
2023-08-17T23:32:38.769Z,102020.16
2023-08-17T23:35:05.824Z,102017.75
2023-08-17T23:37:32.377Z,102024.34
2023-08-17T23:39:58.930Z,102022.78
2023-08-17T23:42:25.372Z,102017.09
2023-08-17T23:44:51.841Z,102024.00
2023-08-17T23:47:18.320Z,102015.50
2023-08-17T23:49:45.533Z,102022.09
2023-08-17T23:52:12.404Z,102021.75
2023-08-17T23:54:39.117Z,102013.22
2023-08-17T23:57:05.859Z,102021.44
2023-08-17T23:59:32.290Z,102018.25
